createdAt,value
2018-11-03T00:00:25.859Z,7.23
2018-11-03T00:02:54.107Z,7.21
2018-11-03T00:05:22.247Z,7.21
2018-11-03T00:07:50.407Z,7.22
2018-11-03T00:10:18.562Z,7.16
2018-11-03T00:12:46.712Z,7.14
2018-11-03T00:15:14.871Z,7.15
2018-11-03T00:17:43.039Z,7.16
2018-11-03T00:20:11.198Z,7.17
2018-11-03T00:22:39.436Z,7.20
2018-11-03T00:25:08.065Z,7.22
2018-11-03T00:27:36.223Z,7.24
2018-11-03T00:30:05.925Z,7.24
2018-11-03T00:32:34.077Z,7.26
2018-11-03T00:35:02.232Z,7.28
2018-11-03T00:37:30.432Z,7.26
2018-11-03T00:39:58.591Z,7.22
2018-11-03T00:42:26.784Z,7.16
2018-11-03T00:44:54.995Z,7.11
2018-11-03T00:47:23.146Z,7.11
2018-11-03T00:49:51.284Z,7.08
2018-11-03T00:52:19.444Z,7.06
2018-11-03T00:54:47.587Z,7.05
2018-11-03T00:57:15.735Z,7.04
2018-11-03T00:59:43.903Z,7.06
2018-11-03T01:02:12.090Z,7.04
2018-11-03T01:04:40.274Z,7.02
2018-11-03T01:07:08.447Z,7.04
2018-11-03T01:09:36.599Z,7.00
2018-11-03T01:12:04.751Z,6.96
2018-11-03T01:14:32.919Z,6.92
2018-11-03T01:17:01.090Z,6.90
2018-11-03T01:19:29.238Z,6.94
2018-11-03T01:21:57.433Z,6.94
2018-11-03T01:24:25.607Z,6.97
2018-11-03T01:26:53.779Z,6.99
2018-11-03T01:29:21.956Z,7.04
2018-11-03T01:31:50.110Z,7.10
2018-11-03T01:34:18.300Z,7.13
2018-11-03T01:36:46.464Z,7.13
2018-11-03T01:39:14.612Z,7.16
2018-11-03T01:41:42.753Z,7.18
2018-11-03T01:44:10.927Z,7.18
2018-11-03T01:46:39.083Z,7.17
2018-11-03T01:49:07.290Z,7.18
2018-11-03T01:51:35.490Z,7.20
2018-11-03T01:54:03.634Z,7.21
2018-11-03T01:56:31.841Z,7.19
2018-11-03T01:58:59.959Z,7.18
2018-11-03T02:01:28.135Z,7.16
2018-11-03T02:03:56.278Z,7.17
2018-11-03T02:06:24.439Z,7.19
2018-11-03T02:08:52.602Z,7.21
2018-11-03T02:11:20.757Z,7.23
2018-11-03T02:13:48.915Z,7.23
2018-11-03T02:16:17.077Z,7.25
2018-11-03T02:18:45.210Z,7.26
2018-11-03T02:21:13.456Z,7.23
2018-11-03T02:23:41.646Z,7.22
2018-11-03T02:26:09.887Z,7.22
2018-11-03T02:28:38.065Z,7.19
2018-11-03T02:31:06.503Z,7.19
2018-11-03T02:33:34.692Z,7.19
2018-11-03T02:36:02.885Z,7.20
2018-11-03T02:38:31.055Z,7.18
2018-11-03T02:40:59.219Z,7.19
2018-11-03T02:43:27.402Z,7.19
2018-11-03T02:45:55.595Z,7.20
2018-11-03T02:48:23.746Z,7.17
2018-11-03T02:50:51.910Z,7.18
2018-11-03T02:53:20.037Z,7.16
2018-11-03T02:55:48.183Z,7.15
2018-11-03T02:58:16.328Z,7.16
2018-11-03T03:00:44.455Z,7.16
2018-11-03T03:03:12.607Z,7.16
2018-11-03T03:05:40.767Z,7.16
2018-11-03T03:08:08.978Z,7.18
2018-11-03T03:10:37.122Z,7.16
2018-11-03T03:13:05.523Z,7.13
2018-11-03T03:15:33.680Z,7.09
2018-11-03T03:18:01.845Z,7.04
2018-11-03T03:20:29.995Z,7.01
2018-11-03T03:22:58.151Z,6.99
2018-11-03T03:25:26.309Z,7.00
2018-11-03T03:27:54.473Z,7.00
2018-11-03T03:30:22.654Z,6.98
2018-11-03T03:32:50.843Z,6.94
2018-11-03T03:35:18.975Z,6.91
2018-11-03T03:37:47.122Z,6.88
2018-11-03T03:40:15.292Z,6.84
2018-11-03T03:42:43.483Z,6.81
2018-11-03T03:45:11.699Z,6.78
2018-11-03T03:47:39.856Z,6.76
2018-11-03T03:50:09.065Z,6.73
2018-11-03T03:52:37.226Z,6.74
2018-11-03T03:55:05.627Z,6.76
2018-11-03T03:57:33.812Z,6.74
2018-11-03T04:00:01.975Z,6.74
2018-11-03T04:02:30.141Z,6.73
2018-11-03T04:04:58.269Z,6.74
2018-11-03T04:07:26.412Z,6.74
2018-11-03T04:09:54.584Z,6.76
2018-11-03T04:12:22.719Z,6.77
2018-11-03T04:14:50.859Z,6.75
2018-11-03T04:17:19.019Z,6.76
2018-11-03T04:19:47.180Z,6.76
2018-11-03T04:22:15.347Z,6.76
2018-11-03T04:24:43.513Z,6.68
2018-11-03T04:27:11.667Z,6.60
2018-11-03T04:29:39.812Z,6.52
2018-11-03T04:32:07.992Z,6.44
2018-11-03T04:34:36.125Z,6.39
2018-11-03T04:37:04.314Z,6.35
2018-11-03T04:39:32.430Z,6.34
2018-11-03T04:42:00.582Z,6.31
2018-11-03T04:44:28.801Z,6.31
2018-11-03T04:46:56.987Z,6.30
2018-11-03T04:49:25.235Z,6.32
2018-11-03T04:51:53.367Z,6.33
2018-11-03T04:54:21.518Z,6.35
2018-11-03T04:56:49.659Z,6.39
2018-11-03T04:59:17.811Z,6.41
2018-11-03T05:01:45.973Z,6.40
2018-11-03T05:04:14.135Z,6.37
2018-11-03T05:06:42.287Z,6.38
2018-11-03T05:09:11.102Z,6.39
2018-11-03T05:11:39.306Z,6.38
2018-11-03T05:14:08.476Z,6.35
2018-11-03T05:16:36.942Z,6.35
2018-11-03T05:19:05.217Z,6.35
2018-11-03T05:21:33.372Z,6.34
2018-11-03T05:24:01.549Z,6.33
2018-11-03T05:26:29.715Z,6.30
2018-11-03T05:28:57.931Z,6.30
2018-11-03T05:31:26.180Z,6.29
2018-11-03T05:33:54.261Z,6.27
2018-11-03T05:36:22.400Z,6.20
2018-11-03T05:38:50.568Z,6.17
2018-11-03T05:41:18.707Z,6.11
2018-11-03T05:43:46.843Z,6.07
2018-11-03T05:46:14.993Z,6.10
2018-11-03T05:48:43.124Z,6.15
2018-11-03T05:51:11.270Z,6.18
2018-11-03T05:53:39.418Z,6.20
2018-11-03T05:56:07.574Z,6.19
2018-11-03T05:58:35.732Z,6.17
2018-11-03T06:01:03.887Z,6.12
2018-11-03T06:03:32.036Z,6.13
2018-11-03T06:06:00.188Z,6.12
2018-11-03T06:08:28.360Z,6.06
2018-11-03T06:10:56.535Z,6.02
2018-11-03T06:13:24.683Z,5.97
2018-11-03T06:15:52.872Z,5.96
2018-11-03T06:18:21.021Z,5.99
2018-11-03T06:20:49.222Z,6.02
2018-11-03T06:23:17.440Z,6.03
2018-11-03T06:25:45.511Z,6.02
2018-11-03T06:28:13.781Z,6.05
2018-11-03T06:30:41.912Z,6.01
2018-11-03T06:33:10.056Z,5.98
2018-11-03T06:35:38.199Z,5.94
2018-11-03T06:38:06.375Z,5.91
2018-11-03T06:40:34.555Z,5.92
2018-11-03T06:43:02.752Z,5.96
2018-11-03T06:45:30.931Z,5.98
2018-11-03T06:47:59.383Z,6.03
2018-11-03T06:50:27.540Z,6.02
2018-11-03T06:52:55.687Z,5.97
2018-11-03T06:55:30.199Z,5.95
2018-11-03T06:57:58.343Z,5.93
2018-11-03T07:00:26.525Z,5.98
2018-11-03T07:02:54.642Z,5.97
2018-11-03T07:05:22.889Z,5.95
2018-11-03T07:07:51.115Z,5.95
2018-11-03T07:10:19.664Z,6.00
2018-11-03T07:12:47.897Z,6.03
2018-11-03T07:15:15.954Z,6.06
2018-11-03T07:17:44.154Z,6.12
2018-11-03T07:20:13.194Z,6.19
2018-11-03T07:22:41.437Z,6.25
2018-11-03T07:25:09.764Z,6.32
2018-11-03T07:27:37.911Z,6.37
2018-11-03T07:30:08.462Z,6.41
2018-11-03T07:32:36.605Z,6.43
2018-11-03T07:35:04.940Z,6.47
2018-11-03T07:37:33.142Z,6.53
2018-11-03T07:40:01.298Z,6.58
2018-11-03T07:42:29.590Z,6.66
2018-11-03T07:44:57.720Z,6.71
2018-11-03T07:47:25.868Z,6.75
2018-11-03T07:49:54.043Z,6.79
2018-11-03T07:52:22.298Z,6.82
2018-11-03T07:54:50.508Z,6.84
2018-11-03T07:57:18.632Z,6.82
2018-11-03T07:59:53.343Z,6.83
2018-11-03T08:02:21.506Z,6.84
2018-11-03T08:04:49.663Z,6.88
2018-11-03T08:07:17.850Z,6.92
2018-11-03T08:09:46.044Z,6.98
2018-11-03T08:12:14.212Z,7.03
2018-11-03T08:14:42.468Z,7.08
2018-11-03T08:17:10.826Z,7.15
2018-11-03T08:19:38.983Z,7.20
2018-11-03T08:22:07.143Z,7.24
2018-11-03T08:24:35.343Z,7.30
2018-11-03T08:27:03.540Z,7.34
2018-11-03T08:29:31.670Z,7.36
2018-11-03T08:32:00.067Z,7.40
2018-11-03T08:34:28.226Z,7.42
2018-11-03T08:36:56.387Z,7.46
2018-11-03T08:39:24.623Z,7.50
2018-11-03T08:41:52.715Z,7.55
2018-11-03T08:44:20.862Z,7.58
2018-11-03T08:46:49.083Z,7.60
2018-11-03T08:49:17.294Z,7.64
2018-11-03T08:51:45.542Z,7.66
2018-11-03T08:54:13.702Z,7.69
2018-11-03T08:56:41.871Z,7.74
2018-11-03T08:59:10.037Z,7.79
2018-11-03T09:01:38.318Z,7.83
2018-11-03T09:04:06.685Z,7.84
2018-11-03T09:06:34.883Z,7.86
2018-11-03T09:09:03.131Z,7.90
2018-11-03T09:11:31.307Z,7.94
2018-11-03T09:13:59.579Z,7.96
2018-11-03T09:16:27.768Z,8.00
2018-11-03T09:18:56.047Z,8.03
2018-11-03T09:21:24.263Z,8.09
2018-11-03T09:23:52.550Z,8.15
2018-11-03T09:26:21.464Z,8.21
2018-11-03T09:28:49.643Z,8.27
2018-11-03T09:31:17.910Z,8.34
2018-11-03T09:33:46.200Z,8.40
2018-11-03T09:36:14.390Z,8.48
2018-11-03T09:38:42.594Z,8.55
2018-11-03T09:41:10.763Z,8.61
2018-11-03T09:43:38.956Z,8.68
2018-11-03T09:46:07.323Z,8.80
2018-11-03T09:48:35.623Z,8.90
2018-11-03T09:51:03.908Z,9.01
2018-11-03T09:53:32.242Z,9.11
2018-11-03T09:56:00.629Z,9.21
2018-11-03T09:58:28.777Z,9.29
2018-11-03T10:00:56.947Z,9.37
2018-11-03T10:03:25.171Z,9.47
2018-11-03T10:05:53.392Z,9.56
2018-11-03T10:08:21.597Z,9.63
2018-11-03T10:10:49.771Z,9.66
2018-11-03T10:13:18.007Z,9.72
2018-11-03T10:15:46.299Z,9.77
2018-11-03T10:18:14.475Z,9.82
2018-11-03T10:20:42.692Z,9.85
2018-11-03T10:23:10.868Z,9.91
2018-11-03T10:25:39.100Z,9.95
2018-11-03T10:28:07.332Z,9.99
2018-11-03T10:30:35.555Z,10.04
2018-11-03T10:33:03.796Z,10.11
2018-11-03T10:35:31.945Z,10.17
2018-11-03T10:38:00.207Z,10.26
2018-11-03T10:40:28.548Z,10.28
2018-11-03T10:42:56.930Z,10.32
2018-11-03T10:45:25.307Z,10.35
2018-11-03T10:47:53.594Z,10.37
2018-11-03T10:50:21.787Z,10.41
2018-11-03T10:52:50.183Z,10.45
2018-11-03T10:55:19.360Z,10.47
2018-11-03T10:57:47.684Z,10.47
2018-11-03T11:00:22.627Z,10.47
2018-11-03T11:02:56.238Z,10.47
2018-11-03T11:05:29.707Z,10.47
2018-11-03T11:08:03.246Z,10.47
2018-11-03T11:10:36.810Z,10.47
2018-11-03T11:13:10.788Z,10.43
2018-11-03T11:15:39.058Z,10.43
2018-11-03T11:18:07.332Z,10.42
2018-11-03T11:20:35.549Z,10.45
2018-11-03T11:23:03.797Z,10.48
2018-11-03T11:25:32.213Z,10.51
2018-11-03T11:28:00.316Z,10.55
2018-11-03T11:30:33.999Z,10.56
2018-11-03T11:33:02.233Z,10.56
2018-11-03T11:35:30.461Z,10.58
2018-11-03T11:37:58.807Z,10.59
2018-11-03T11:40:27.013Z,10.57
2018-11-03T11:42:55.213Z,10.61
2018-11-03T11:45:23.494Z,10.62
2018-11-03T11:47:51.722Z,10.63
2018-11-03T11:50:20.374Z,10.62
2018-11-03T11:52:48.531Z,10.60
2018-11-03T11:55:16.821Z,10.61
2018-11-03T11:57:45.007Z,10.61
2018-11-03T12:00:13.214Z,10.62
2018-11-03T12:02:41.383Z,10.64
2018-11-03T12:05:09.579Z,10.66
2018-11-03T12:07:37.710Z,10.67
2018-11-03T12:10:06.068Z,10.68
2018-11-03T12:12:34.242Z,10.72
2018-11-03T12:15:02.431Z,10.76
2018-11-03T12:17:30.668Z,10.85
2018-11-03T12:19:58.830Z,10.87
2018-11-03T12:22:27.081Z,10.86
2018-11-03T12:24:55.272Z,10.87
2018-11-03T12:27:23.471Z,10.95
2018-11-03T12:29:51.624Z,10.96
2018-11-03T12:32:19.891Z,10.95
2018-11-03T12:34:48.153Z,10.93
2018-11-03T12:37:16.369Z,10.91
2018-11-03T12:39:44.580Z,10.91
2018-11-03T12:42:12.788Z,10.90
2018-11-03T12:44:41.055Z,10.91
2018-11-03T12:47:09.299Z,10.88
2018-11-03T12:49:37.476Z,10.88
2018-11-03T12:52:05.703Z,10.86
2018-11-03T12:54:34.122Z,10.82
2018-11-03T12:57:02.295Z,10.82
2018-11-03T12:59:30.492Z,10.79
2018-11-03T13:01:58.755Z,10.79
2018-11-03T13:04:26.948Z,10.81
2018-11-03T13:06:55.154Z,10.82
2018-11-03T13:09:23.312Z,10.87
2018-11-03T13:11:51.528Z,10.95
2018-11-03T13:14:19.687Z,11.18
2018-11-03T13:16:47.878Z,11.32
2018-11-03T13:19:16.036Z,11.38
2018-11-03T13:21:44.246Z,11.36
2018-11-03T13:24:12.807Z,11.27
2018-11-03T13:26:41.064Z,11.20
2018-11-03T13:29:09.530Z,11.14
2018-11-03T13:31:37.682Z,11.13
2018-11-03T13:34:06.318Z,11.09
2018-11-03T13:36:34.522Z,11.10
2018-11-03T13:39:02.797Z,11.14
2018-11-03T13:41:31.122Z,11.16
2018-11-03T13:43:59.274Z,11.16
2018-11-03T13:46:28.018Z,11.13
2018-11-03T13:48:56.232Z,11.15
2018-11-03T13:51:24.496Z,11.16
2018-11-03T13:53:52.755Z,11.17
2018-11-03T13:56:21.119Z,11.20
2018-11-03T13:58:49.490Z,11.21
2018-11-03T14:01:17.846Z,11.24
2018-11-03T14:03:46.069Z,11.22
2018-11-03T14:06:14.671Z,11.18
2018-11-03T14:08:43.046Z,11.11
2018-11-03T14:11:11.381Z,11.05
2018-11-03T14:13:39.555Z,11.02
2018-11-03T14:16:07.802Z,11.07
2018-11-03T14:18:36.251Z,11.13
2018-11-03T14:21:04.556Z,11.16
2018-11-03T14:23:33.040Z,11.15
2018-11-03T14:26:01.059Z,11.11
2018-11-03T14:28:29.435Z,11.07
2018-11-03T14:30:57.867Z,11.03
2018-11-03T14:33:26.276Z,10.98
2018-11-03T14:35:54.411Z,10.95
2018-11-03T14:38:22.680Z,10.92
2018-11-03T14:40:51.169Z,10.90
2018-11-03T14:43:19.654Z,10.88
2018-11-03T14:45:47.958Z,10.84
2018-11-03T14:48:16.370Z,10.82
2018-11-03T14:50:44.547Z,10.81
2018-11-03T14:53:12.772Z,10.80
2018-11-03T14:55:40.990Z,10.79
2018-11-03T14:58:09.186Z,10.78
2018-11-03T15:00:37.890Z,10.76
2018-11-03T15:03:06.694Z,10.75
2018-11-03T15:05:34.866Z,10.71
2018-11-03T15:08:03.235Z,10.68
2018-11-03T15:10:31.525Z,10.66
2018-11-03T15:12:59.678Z,10.65
2018-11-03T15:15:27.907Z,10.62
2018-11-03T15:17:56.075Z,10.60
2018-11-03T15:20:24.282Z,10.57
2018-11-03T15:22:52.473Z,10.52
2018-11-03T15:25:20.662Z,10.47
2018-11-03T15:27:48.867Z,10.43
2018-11-03T15:30:17.053Z,10.38
2018-11-03T15:32:45.322Z,10.33
2018-11-03T15:35:14.007Z,10.28
2018-11-03T15:37:42.308Z,10.25
2018-11-03T15:40:12.706Z,10.20
2018-11-03T15:42:41.043Z,10.15
2018-11-03T15:45:12.076Z,10.07
2018-11-03T15:47:40.404Z,9.99
2018-11-03T15:50:08.543Z,9.93
2018-11-03T15:52:36.686Z,9.85
2018-11-03T15:55:05.691Z,9.77
2018-11-03T15:57:34.032Z,9.68
2018-11-03T16:00:03.088Z,9.61
2018-11-03T16:02:31.766Z,9.58
2018-11-03T16:05:00.574Z,9.52
2018-11-03T16:07:30.287Z,9.43
2018-11-03T16:09:58.595Z,9.36
2018-11-03T16:12:26.824Z,9.29
2018-11-03T16:14:55.023Z,9.24
2018-11-03T16:17:23.269Z,9.17
2018-11-03T16:19:51.655Z,9.13
2018-11-03T16:22:20.022Z,9.09
2018-11-03T16:24:48.413Z,9.10
2018-11-03T16:27:16.734Z,9.07
2018-11-03T16:29:45.056Z,9.03
2018-11-03T16:32:13.486Z,9.00
2018-11-03T16:34:41.506Z,8.92
2018-11-03T16:37:09.708Z,8.86
2018-11-03T16:39:37.926Z,8.78
2018-11-03T16:42:06.383Z,8.70
2018-11-03T16:44:34.582Z,8.66
2018-11-03T16:47:02.739Z,8.61
2018-11-03T16:49:31.050Z,8.58
2018-11-03T16:51:59.246Z,8.57
2018-11-03T16:54:28.566Z,8.61
2018-11-03T16:56:56.714Z,8.60
2018-11-03T16:59:24.855Z,8.53
2018-11-03T17:01:53.290Z,8.49
2018-11-03T17:04:21.439Z,8.44
2018-11-03T17:06:49.682Z,8.43
2018-11-03T17:09:17.778Z,8.43
2018-11-03T17:11:45.951Z,8.42
2018-11-03T17:14:14.108Z,8.45
2018-11-03T17:16:42.299Z,8.51
2018-11-03T17:19:10.466Z,8.53
2018-11-03T17:21:39.108Z,8.58
2018-11-03T17:24:07.269Z,8.58
2018-11-03T17:26:35.428Z,8.58
2018-11-03T17:29:03.602Z,8.56
2018-11-03T17:31:31.790Z,8.56
2018-11-03T17:33:59.946Z,8.54
2018-11-03T17:36:28.298Z,8.53
2018-11-03T17:38:56.416Z,8.51
2018-11-03T17:41:24.680Z,8.49
2018-11-03T17:43:52.970Z,8.46
2018-11-03T17:46:21.132Z,8.48
2018-11-03T17:48:49.303Z,8.45
2018-11-03T17:51:17.459Z,8.43
2018-11-03T17:53:45.710Z,8.42
2018-11-03T17:56:13.842Z,8.34
2018-11-03T17:58:42.004Z,8.25
2018-11-03T18:01:10.280Z,8.20
2018-11-03T18:03:38.309Z,8.17
2018-11-03T18:06:06.696Z,8.16
2018-11-03T18:08:34.839Z,8.14
2018-11-03T18:11:02.980Z,8.10
2018-11-03T18:13:31.114Z,8.07
2018-11-03T18:15:59.270Z,8.06
2018-11-03T18:18:27.418Z,8.05
2018-11-03T18:20:55.563Z,8.05
2018-11-03T18:23:23.732Z,8.04
2018-11-03T18:25:51.887Z,8.05
2018-11-03T18:28:20.043Z,8.05
2018-11-03T18:30:48.294Z,8.00
2018-11-03T18:33:16.446Z,7.97
2018-11-03T18:35:44.487Z,7.96
2018-11-03T18:38:12.659Z,7.91
2018-11-03T18:40:40.820Z,7.89
2018-11-03T18:43:09.044Z,7.84
2018-11-03T18:45:37.174Z,7.79
2018-11-03T18:48:05.534Z,7.71
2018-11-03T18:50:33.683Z,7.66
2018-11-03T18:53:01.840Z,7.65
2018-11-03T18:55:29.990Z,7.61
2018-11-03T18:57:58.191Z,7.59
2018-11-03T19:00:26.329Z,7.57
2018-11-03T19:02:54.515Z,7.54
2018-11-03T19:05:22.660Z,7.51
2018-11-03T19:07:50.798Z,7.47
2018-11-03T19:10:18.970Z,7.44
2018-11-03T19:12:47.249Z,7.38
2018-11-03T19:15:15.623Z,7.35
2018-11-03T19:17:43.788Z,7.30
2018-11-03T19:20:14.449Z,7.25
2018-11-03T19:22:42.771Z,7.19
2018-11-03T19:25:12.075Z,7.14
2018-11-03T19:27:40.783Z,7.11
2018-11-03T19:30:10.714Z,7.15
2018-11-03T19:32:39.966Z,7.23
2018-11-03T19:35:08.473Z,7.28
2018-11-03T19:37:36.685Z,7.30
2018-11-03T19:40:05.517Z,7.30
2018-11-03T19:42:33.658Z,7.24
2018-11-03T19:45:01.845Z,7.14
2018-11-03T19:47:30.000Z,7.03
2018-11-03T19:49:58.151Z,6.95
2018-11-03T19:52:26.292Z,6.93
2018-11-03T19:54:54.455Z,6.90
2018-11-03T19:57:22.608Z,6.85
2018-11-03T19:59:50.788Z,6.81
2018-11-03T20:02:19.122Z,6.79
2018-11-03T20:04:47.224Z,6.81
2018-11-03T20:07:15.444Z,6.86
2018-11-03T20:09:43.568Z,6.88
2018-11-03T20:12:11.718Z,6.87
2018-11-03T20:14:39.879Z,6.85
2018-11-03T20:17:08.087Z,6.85
2018-11-03T20:19:36.259Z,6.86
2018-11-03T20:22:05.580Z,6.87
2018-11-03T20:24:33.897Z,6.90
2018-11-03T20:27:02.136Z,6.91
2018-11-03T20:29:30.283Z,6.93
2018-11-03T20:31:58.484Z,6.93
2018-11-03T20:34:26.620Z,6.90
2018-11-03T20:36:54.794Z,6.89
2018-11-03T20:39:22.951Z,6.91
2018-11-03T20:41:51.089Z,6.90
2018-11-03T20:44:19.276Z,6.91
2018-11-03T20:46:47.438Z,6.92
2018-11-03T20:49:15.603Z,6.93
2018-11-03T20:51:43.747Z,6.96
2018-11-03T20:54:11.978Z,6.96
2018-11-03T20:56:40.178Z,6.98
2018-11-03T20:59:08.670Z,6.98
2018-11-03T21:01:36.824Z,6.98
2018-11-03T21:04:05.329Z,6.96
2018-11-03T21:06:33.478Z,6.93
2018-11-03T21:09:01.655Z,6.91
2018-11-03T21:11:29.804Z,6.90
2018-11-03T21:13:57.971Z,6.87
2018-11-03T21:16:26.145Z,6.87
2018-11-03T21:18:54.372Z,6.85
2018-11-03T21:21:22.532Z,6.84
2018-11-03T21:23:50.848Z,6.84
2018-11-03T21:26:18.906Z,6.85
2018-11-03T21:28:47.951Z,6.82
2018-11-03T21:31:16.121Z,6.83
2018-11-03T21:33:44.283Z,6.87
2018-11-03T21:36:12.457Z,6.85
2018-11-03T21:38:40.624Z,6.83
2018-11-03T21:41:08.779Z,6.82
2018-11-03T21:43:36.915Z,6.82
2018-11-03T21:46:06.391Z,6.81
2018-11-03T21:48:34.499Z,6.78
2018-11-03T21:51:02.669Z,6.78
2018-11-03T21:53:30.981Z,6.72
2018-11-03T21:55:59.235Z,6.62
2018-11-03T21:58:27.252Z,6.60
2018-11-03T22:00:55.423Z,6.55
2018-11-03T22:03:23.574Z,6.52
2018-11-03T22:05:51.792Z,6.48
2018-11-03T22:08:19.975Z,6.44
2018-11-03T22:10:48.138Z,6.44
2018-11-03T22:13:16.291Z,6.44
2018-11-03T22:15:44.454Z,6.48
2018-11-03T22:18:12.595Z,6.51
2018-11-03T22:20:40.754Z,6.54
2018-11-03T22:23:09.047Z,6.56
2018-11-03T22:25:37.235Z,6.60
2018-11-03T22:28:05.717Z,6.61
2018-11-03T22:30:33.707Z,6.63
2018-11-03T22:33:01.883Z,6.63
2018-11-03T22:35:30.032Z,6.64
2018-11-03T22:37:58.190Z,6.65
2018-11-03T22:40:26.342Z,6.65
2018-11-03T22:42:54.547Z,6.65
2018-11-03T22:45:22.780Z,6.63
2018-11-03T22:47:50.971Z,6.60
2018-11-03T22:50:19.127Z,6.54
2018-11-03T22:52:47.259Z,6.49
2018-11-03T22:55:15.419Z,6.47
2018-11-03T22:57:43.578Z,6.48
2018-11-03T23:00:13.107Z,6.49
2018-11-03T23:02:41.691Z,6.50
2018-11-03T23:05:10.787Z,6.53
2018-11-03T23:07:39.211Z,6.52
2018-11-03T23:10:07.645Z,6.51
2018-11-03T23:12:35.894Z,6.49
2018-11-03T23:15:04.014Z,6.48
2018-11-03T23:17:32.159Z,6.50
2018-11-03T23:20:00.300Z,6.50
2018-11-03T23:22:28.440Z,6.43
2018-11-03T23:24:56.594Z,6.37
2018-11-03T23:27:24.763Z,6.37
2018-11-03T23:29:53.147Z,6.36
2018-11-03T23:32:21.074Z,6.37
2018-11-03T23:34:49.206Z,6.38
2018-11-03T23:37:17.371Z,6.38
2018-11-03T23:39:45.566Z,6.38
2018-11-03T23:42:13.723Z,6.37
2018-11-03T23:44:41.867Z,6.37
2018-11-03T23:47:10.156Z,6.33
2018-11-03T23:49:38.334Z,6.31
2018-11-03T23:52:06.474Z,6.28
2018-11-03T23:54:34.610Z,6.25
2018-11-03T23:57:02.774Z,6.26
2018-11-03T23:59:31.044Z,6.27
